Terminal Aerodrome Forecast
Issued by NWS

Home | Current Version | Previous Version | Text Only | Print | Product List | Glossary On
Versions: 1 2 3 4 5 6 7 8 9 10 11 12 13 14 15 16 17 18 19 20 21 22
000
FTUS41 KCAR 251809 AAA
TAFFVE
TAF AMD
KFVE 251809Z 2518/2618 30015G28KT 6SM -SHSN BLSN SCT025 OVC035
      TEMPO 2518/2522 2SM -SN BR SCT015 BKN025
     FM252200 30010G22KT P6SM SCT040
     FM260800 32010KT P6SM SKC=

USA.gov is the U.S. government's official web portal to all federal, state and local government web resources and services.